createdAt,value
2023-01-10T00:03:47.704Z,99261.20
2023-01-10T00:07:07.246Z,99265.20
2023-01-10T00:10:44.482Z,99262.20
2023-01-10T00:14:15.238Z,99267.60
2023-01-10T00:17:44.955Z,99271.40
2023-01-10T00:21:15.193Z,99275.40
2023-01-10T00:25:41.068Z,99279.80
2023-01-10T00:30:10.753Z,99282.40
2023-01-10T00:34:40.383Z,99284.00
2023-01-10T00:39:09.844Z,99284.60
2023-01-10T00:42:54.240Z,99285.80
2023-01-10T00:46:03.037Z,99290.40
2023-01-10T00:49:33.082Z,99289.40
2023-01-10T00:54:02.612Z,99292.60
2023-01-10T00:58:27.143Z,99303.60
2023-01-10T01:02:56.915Z,99305.80
2023-01-10T01:07:26.237Z,99314.00
2023-01-10T01:11:55.707Z,99326.00
2023-01-10T01:16:25.326Z,99329.00
2023-01-10T01:20:10.298Z,99328.20
2023-01-10T01:23:19.028Z,99332.80
2023-01-10T01:27:48.549Z,99335.40
2023-01-10T01:31:30.077Z,99335.60
2023-01-10T01:35:00.307Z,99339.00
2023-01-10T01:38:31.042Z,99346.80
2023-01-10T01:42:02.218Z,99349.40
2023-01-10T01:45:51.005Z,99354.80
2023-01-10T01:49:20.015Z,99357.60
2023-01-10T01:53:38.209Z,99356.00
2023-01-10T02:00:32.246Z,99361.00
2023-01-10T02:04:06.161Z,99365.00
2023-01-10T02:07:34.844Z,99364.40
2023-01-10T02:11:24.012Z,99369.20
2023-01-10T02:14:53.141Z,99371.60
2023-01-10T02:19:11.133Z,99377.20
2023-01-10T02:22:59.080Z,99377.40
2023-01-10T02:26:38.121Z,99386.60
2023-01-10T02:30:11.153Z,99386.60
2023-01-10T02:33:45.046Z,99391.80
2023-01-10T02:37:33.903Z,99396.40
2023-01-10T02:42:16.809Z,99405.80
2023-01-10T02:49:43.225Z,99413.00
2023-01-10T02:53:14.107Z,99414.00
2023-01-10T02:57:25.459Z,99421.40
2023-01-10T03:04:15.066Z,99431.60
2023-01-10T03:07:37.464Z,99440.20
2023-01-10T03:12:07.073Z,99446.60
2023-01-10T03:19:43.463Z,99453.80
2023-01-10T03:24:12.992Z,99463.80
2023-01-10T03:28:57.232Z,99473.20
2023-01-10T03:33:26.864Z,99476.20
2023-01-10T03:39:55.257Z,99492.60
2023-01-10T03:43:03.806Z,99499.20
2023-01-10T03:46:50.150Z,99508.20
2023-01-10T03:50:24.071Z,99508.40
2023-01-10T03:53:57.019Z,99516.00
2023-01-10T03:57:27.182Z,99525.80
2023-01-10T04:01:02.248Z,99531.40
2023-01-10T04:04:31.967Z,99544.80
2023-01-10T04:08:02.969Z,99544.80
2023-01-10T04:11:32.778Z,99548.60
2023-01-10T04:15:09.023Z,99551.40
2023-01-10T04:18:51.168Z,99558.80
2023-01-10T04:22:22.027Z,99562.60
2023-01-10T04:25:52.024Z,99571.80
2023-01-10T04:29:21.784Z,99570.60
2023-01-10T04:32:51.734Z,99578.80
2023-01-10T04:36:23.035Z,99583.00
2023-01-10T04:39:56.742Z,99595.40
2023-01-10T04:43:26.751Z,99601.40
2023-01-10T04:46:57.791Z,99610.60
2023-01-10T04:50:28.109Z,99615.60
2023-01-10T04:54:45.714Z,99623.80
2023-01-10T04:59:15.205Z,99627.80
2023-01-10T05:03:44.761Z,99639.20
2023-01-10T05:08:22.781Z,99645.00
2023-01-10T05:12:52.261Z,99648.40
2023-01-10T05:17:21.823Z,99655.00
2023-01-10T05:21:51.017Z,99665.00
2023-01-10T05:28:33.072Z,99677.40
2023-01-10T05:31:45.243Z,99684.40
2023-01-10T05:35:14.764Z,99697.80
2023-01-10T05:38:44.739Z,99705.60
2023-01-10T05:42:15.095Z,99702.20
2023-01-10T05:45:46.962Z,99702.80
2023-01-10T05:49:16.667Z,99715.60
2023-01-10T05:52:46.682Z,99717.80
2023-01-10T05:55:30.150Z,99722.00
2023-01-10T05:57:59.177Z,99730.20
2023-01-10T06:02:28.858Z,99737.40
2023-01-10T06:05:52.157Z,99738.60
2023-01-10T06:08:21.443Z,99745.60
2023-01-10T06:10:50.954Z,99744.20
2023-01-10T06:13:19.714Z,99752.20
2023-01-10T06:15:49.030Z,99759.60
2023-01-10T06:18:17.673Z,99768.00
2023-01-10T06:20:46.776Z,99772.40
2023-01-10T06:23:16.090Z,99780.20
2023-01-10T06:25:44.850Z,99789.60
2023-01-10T06:28:15.150Z,99795.60
2023-01-10T06:30:43.995Z,99797.20
2023-01-10T06:33:13.243Z,99797.80
2023-01-10T06:35:41.975Z,99803.80
2023-01-10T06:38:10.815Z,99806.20
2023-01-10T06:40:39.597Z,99817.00
2023-01-10T06:43:08.417Z,99814.40
2023-01-10T06:45:37.344Z,99819.20
2023-01-10T06:48:06.345Z,99828.20
2023-01-10T06:50:35.036Z,99839.80
2023-01-10T06:53:05.613Z,99846.40
2023-01-10T06:55:34.394Z,99857.40
2023-01-10T06:58:05.218Z,99859.00
2023-01-10T07:00:34.057Z,99858.80
2023-01-10T07:03:03.314Z,99862.40
2023-01-10T07:05:34.162Z,99869.20
2023-01-10T07:08:02.852Z,99876.80
2023-01-10T07:10:31.613Z,99882.80
2023-01-10T07:13:00.491Z,99886.20
2023-01-10T07:15:30.491Z,99889.40
2023-01-10T07:17:59.920Z,99892.80
2023-01-10T07:20:29.254Z,99894.40
2023-01-10T07:23:00.950Z,99897.40
2023-01-10T07:25:30.919Z,99897.80
2023-01-10T07:27:59.602Z,99900.20
2023-01-10T07:30:28.340Z,99905.20
2023-01-10T07:32:58.245Z,99907.60
2023-01-10T07:35:27.034Z,99910.40
2023-01-10T07:38:00.543Z,99911.40
2023-01-10T07:40:30.759Z,99918.20
2023-01-10T07:43:04.133Z,99924.00
2023-01-10T07:45:32.854Z,99929.60
2023-01-10T07:48:04.911Z,99932.00
2023-01-10T07:50:37.391Z,99931.60
2023-01-10T07:53:08.468Z,99941.80
2023-01-10T07:55:40.039Z,99944.00
2023-01-10T07:58:08.855Z,99947.40
2023-01-10T08:00:37.490Z,99947.60
2023-01-10T08:03:07.075Z,99949.40
2023-01-10T08:05:35.852Z,99952.20
2023-01-10T08:08:12.827Z,99959.60
2023-01-10T08:10:41.462Z,99967.60
2023-01-10T08:13:18.586Z,99967.20
2023-01-10T08:15:50.591Z,99973.40
2023-01-10T08:18:21.814Z,99980.60
2023-01-10T08:20:52.794Z,99982.80
2023-01-10T08:23:22.543Z,99987.40
2023-01-10T08:25:51.962Z,99992.20
2023-01-10T08:28:20.702Z,99992.20
2023-01-10T08:30:50.568Z,99991.40
2023-01-10T08:33:19.437Z,99994.00
2023-01-10T08:35:48.183Z,99995.80
2023-01-10T08:38:17.315Z,99999.80
2023-01-10T08:40:46.032Z,100000.60
2023-01-10T08:43:15.609Z,100002.00
2023-01-10T08:45:44.461Z,100007.80
2023-01-10T08:48:13.493Z,100006.80
2023-01-10T08:50:42.333Z,100005.20
2023-01-10T08:53:11.322Z,100010.60
2023-01-10T08:55:40.118Z,100013.20
2023-01-10T08:58:11.293Z,100023.00
2023-01-10T09:00:40.086Z,100026.40
2023-01-10T09:03:08.970Z,100028.20
2023-01-10T09:05:37.744Z,100031.20
2023-01-10T09:08:07.386Z,100033.60
2023-01-10T09:10:36.506Z,100035.20
2023-01-10T09:13:06.253Z,100043.20
2023-01-10T09:15:38.764Z,100047.20
2023-01-10T09:18:09.102Z,100051.20
2023-01-10T09:20:40.372Z,100051.60
2023-01-10T09:23:19.486Z,100062.00
2023-01-10T09:25:52.056Z,100056.60
2023-01-10T09:28:22.473Z,100053.80
2023-01-10T09:30:52.280Z,100058.00
2023-01-10T09:33:20.955Z,100059.00
2023-01-10T09:35:49.699Z,100061.80
2023-01-10T09:38:20.372Z,100060.80
2023-01-10T09:41:00.145Z,100058.00
2023-01-10T09:44:06.952Z,100062.20
2023-01-10T09:47:21.759Z,100062.40
2023-01-10T09:50:22.175Z,100069.40
2023-01-10T09:53:19.173Z,100079.40
2023-01-10T09:55:57.273Z,100083.00
2023-01-10T09:58:31.670Z,100084.20
2023-01-10T10:01:07.142Z,100080.00
2023-01-10T10:04:16.774Z,100088.40
2023-01-10T10:06:49.460Z,100098.20
2023-01-10T10:09:29.142Z,100100.40
2023-01-10T10:12:41.792Z,100108.00
2023-01-10T10:15:42.735Z,100115.20
2023-01-10T10:19:04.934Z,100113.00
2023-01-10T10:21:50.632Z,100121.80
2023-01-10T10:24:48.415Z,100120.20
2023-01-10T10:27:31.194Z,100119.60
2023-01-10T10:30:27.001Z,100119.60
2023-01-10T10:33:01.618Z,100123.60
2023-01-10T10:35:49.794Z,100123.60
2023-01-10T10:38:26.973Z,100129.00
2023-01-10T10:40:58.735Z,100138.20
2023-01-10T10:43:34.537Z,100136.80
2023-01-10T10:46:13.170Z,100137.60
2023-01-10T10:48:50.955Z,100146.00
2023-01-10T10:51:37.841Z,100144.00
2023-01-10T10:54:11.610Z,100148.80
2023-01-10T10:56:41.532Z,100144.00
2023-01-10T10:59:19.635Z,100140.40
2023-01-10T11:01:52.435Z,100145.60
2023-01-10T11:04:24.150Z,100142.20
2023-01-10T11:06:53.615Z,100147.20
2023-01-10T11:09:41.465Z,100148.60
2023-01-10T11:12:21.254Z,100153.20
2023-01-10T11:14:52.595Z,100146.00
2023-01-10T11:17:26.292Z,100146.40
2023-01-10T11:20:05.416Z,100140.80
2023-01-10T11:22:54.552Z,100140.40
2023-01-10T11:25:23.965Z,100149.60
2023-01-10T11:28:01.637Z,100150.40
2023-01-10T11:30:36.956Z,100147.40
2023-01-10T11:33:17.694Z,100150.00
2023-01-10T11:36:04.212Z,100153.60
2023-01-10T11:38:35.077Z,100149.20
2023-01-10T11:41:27.553Z,100146.80
2023-01-10T11:44:16.429Z,100157.80
2023-01-10T11:46:52.533Z,100160.20
2023-01-10T11:49:39.886Z,100165.80
2023-01-10T11:52:26.148Z,100168.00
2023-01-10T11:55:00.657Z,100174.40
2023-01-10T11:57:33.739Z,100179.40
2023-01-10T12:00:11.235Z,100181.00
2023-01-10T12:02:45.272Z,100182.60
2023-01-10T12:05:22.848Z,100187.00
2023-01-10T12:08:08.253Z,100190.80
2023-01-10T12:10:37.120Z,100189.20
2023-01-10T12:13:17.674Z,100185.60
2023-01-10T12:15:47.340Z,100194.00
2023-01-10T12:18:18.112Z,100199.00
2023-01-10T12:20:54.501Z,100206.60
2023-01-10T12:23:25.977Z,100205.00
2023-01-10T12:26:10.731Z,100207.20
2023-01-10T12:28:49.258Z,100207.60
2023-01-10T12:31:24.716Z,100207.80
2023-01-10T12:34:12.556Z,100203.80
2023-01-10T12:36:59.293Z,100207.40
2023-01-10T12:39:38.079Z,100209.00
2023-01-10T12:42:27.687Z,100219.20
2023-01-10T12:45:30.262Z,100220.00
2023-01-10T12:48:10.902Z,100224.60
2023-01-10T12:51:06.256Z,100230.40
2023-01-10T12:53:45.376Z,100227.20
2023-01-10T12:56:17.244Z,100225.60
2023-01-10T12:59:00.894Z,100231.00
2023-01-10T13:01:37.017Z,100225.40
2023-01-10T13:04:18.512Z,100229.80
2023-01-10T13:06:47.915Z,100233.20
2023-01-10T13:09:27.994Z,100240.40
2023-01-10T13:12:04.408Z,100249.00
2023-01-10T13:14:51.976Z,100260.80
2023-01-10T13:17:32.865Z,100265.60
2023-01-10T13:20:17.231Z,100266.80
2023-01-10T13:22:54.253Z,100273.80
2023-01-10T13:25:31.558Z,100278.80
2023-01-10T13:28:23.779Z,100285.20
2023-01-10T13:31:01.419Z,100278.80
2023-01-10T13:34:12.715Z,100280.00
2023-01-10T13:36:49.492Z,100281.00
2023-01-10T13:39:32.478Z,100289.40
2023-01-10T13:42:30.485Z,100300.80
2023-01-10T13:45:02.034Z,100305.60
2023-01-10T13:47:39.859Z,100306.60
2023-01-10T13:50:27.232Z,100315.40
2023-01-10T13:53:02.630Z,100315.40
2023-01-10T13:55:40.126Z,100321.20
2023-01-10T13:58:14.653Z,100329.00
2023-01-10T14:01:05.683Z,100330.40
2023-01-10T14:03:58.472Z,100333.80
2023-01-10T14:06:30.194Z,100328.00
2023-01-10T14:09:14.179Z,100331.20
2023-01-10T14:11:45.822Z,100340.60
2023-01-10T14:14:29.149Z,100349.80
2023-01-10T14:17:21.577Z,100347.80
2023-01-10T14:20:25.147Z,100347.00
2023-01-10T14:23:37.103Z,100347.60
2023-01-10T14:26:06.237Z,100349.40
2023-01-10T14:28:36.572Z,100346.80
2023-01-10T14:31:16.483Z,100347.80
2023-01-10T14:33:47.061Z,100349.40
2023-01-10T14:36:32.057Z,100354.80
2023-01-10T14:39:07.136Z,100355.20
2023-01-10T14:41:50.875Z,100357.20
2023-01-10T14:44:43.508Z,100365.40
2023-01-10T14:47:34.558Z,100366.20
2023-01-10T14:50:06.773Z,100373.40
2023-01-10T14:52:35.517Z,100373.80
2023-01-10T14:55:14.483Z,100372.20
2023-01-10T14:58:02.853Z,100376.40
2023-01-10T15:00:36.798Z,100379.20
2023-01-10T15:03:09.505Z,100368.40
2023-01-10T15:05:50.508Z,100372.00
2023-01-10T15:08:25.347Z,100376.80
2023-01-10T15:11:01.439Z,100377.60
2023-01-10T15:13:33.656Z,100383.60
2023-01-10T15:16:05.808Z,100387.00
2023-01-10T15:18:41.419Z,100389.20
2023-01-10T15:21:14.172Z,100392.00
2023-01-10T15:23:46.753Z,100395.00
2023-01-10T15:26:27.965Z,100402.40
2023-01-10T15:29:22.594Z,100407.40
2023-01-10T15:31:56.004Z,100411.80
2023-01-10T15:34:30.704Z,100413.20
2023-01-10T15:37:02.449Z,100415.20
2023-01-10T15:39:39.641Z,100413.60
2023-01-10T15:42:12.148Z,100416.60
2023-01-10T15:44:52.868Z,100415.80
2023-01-10T15:47:48.667Z,100420.00
2023-01-10T15:50:22.868Z,100419.00
2023-01-10T15:52:59.091Z,100425.60
2023-01-10T15:55:41.756Z,100429.80
2023-01-10T15:58:36.824Z,100435.60
2023-01-10T16:01:05.833Z,100434.20
2023-01-10T16:03:52.345Z,100441.00
2023-01-10T16:06:36.728Z,100436.00
2023-01-10T16:09:09.410Z,100440.60
2023-01-10T16:12:12.572Z,100439.80
2023-01-10T16:14:41.426Z,100442.80
2023-01-10T16:17:11.687Z,100441.80
2023-01-10T16:19:40.407Z,100448.00
2023-01-10T16:22:17.106Z,100441.80
2023-01-10T16:24:47.845Z,100438.80
2023-01-10T16:27:16.571Z,100438.00
2023-01-10T16:29:45.289Z,100446.20
2023-01-10T16:32:15.479Z,100445.20
2023-01-10T16:34:44.366Z,100449.60
2023-01-10T16:37:12.975Z,100454.20
2023-01-10T16:39:41.674Z,100459.60
2023-01-10T16:42:28.705Z,100452.40
2023-01-10T16:44:57.394Z,100453.20
2023-01-10T16:47:26.113Z,100452.00
2023-01-10T16:49:54.795Z,100461.00
2023-01-10T16:52:23.383Z,100470.20
2023-01-10T16:54:52.035Z,100469.60
2023-01-10T16:57:21.039Z,100468.80
2023-01-10T16:59:49.909Z,100471.20
2023-01-10T17:02:19.911Z,100476.20
2023-01-10T17:04:49.403Z,100478.00
2023-01-10T17:07:18.148Z,100482.80
2023-01-10T17:09:46.834Z,100488.20
2023-01-10T17:12:19.936Z,100497.60
2023-01-10T17:14:49.077Z,100503.80
2023-01-10T17:17:17.935Z,100510.40
2023-01-10T17:19:48.096Z,100516.60
2023-01-10T17:22:16.945Z,100518.60
2023-01-10T17:24:45.609Z,100517.20
2023-01-10T17:27:14.893Z,100516.00
2023-01-10T17:29:43.610Z,100514.60
2023-01-10T17:32:13.152Z,100516.00
2023-01-10T17:34:41.816Z,100507.60
2023-01-10T17:37:10.468Z,100516.00
2023-01-10T17:39:39.767Z,100522.40
2023-01-10T17:42:08.736Z,100512.60
2023-01-10T17:44:37.599Z,100528.20
2023-01-10T17:47:06.415Z,100528.80
2023-01-10T17:49:36.674Z,100530.00
2023-01-10T17:52:05.494Z,100536.40
2023-01-10T17:54:35.514Z,100534.40
2023-01-10T17:57:05.807Z,100531.80
2023-01-10T17:59:34.706Z,100535.20
2023-01-10T18:02:03.743Z,100535.60
2023-01-10T18:04:32.589Z,100532.60
2023-01-10T18:07:01.282Z,100539.80
2023-01-10T18:09:30.087Z,100540.80
2023-01-10T18:11:58.788Z,100536.00
2023-01-10T18:14:36.381Z,100538.40
2023-01-10T18:17:12.824Z,100532.20
2023-01-10T18:19:41.571Z,100530.80
2023-01-10T18:22:30.107Z,100535.40
2023-01-10T18:24:59.748Z,100537.60
2023-01-10T18:27:28.947Z,100534.20
2023-01-10T18:29:57.667Z,100536.80
2023-01-10T18:32:26.769Z,100538.60
2023-01-10T18:34:55.609Z,100535.80
2023-01-10T18:37:24.754Z,100537.00
2023-01-10T18:39:53.695Z,100538.60
2023-01-10T18:42:22.555Z,100530.60
2023-01-10T18:44:51.453Z,100535.00
2023-01-10T18:47:20.159Z,100536.80
2023-01-10T18:49:49.268Z,100548.80
2023-01-10T18:52:18.295Z,100561.80
2023-01-10T18:54:52.409Z,100558.60
2023-01-10T18:57:21.403Z,100560.00
2023-01-10T18:59:50.277Z,100565.00
2023-01-10T19:02:19.501Z,100561.60
2023-01-10T19:04:48.490Z,100562.60
2023-01-10T19:07:17.465Z,100555.60
2023-01-10T19:09:46.144Z,100559.20
2023-01-10T19:12:15.013Z,100570.60
2023-01-10T19:14:43.758Z,100570.00
2023-01-10T19:17:12.511Z,100572.00
2023-01-10T19:19:41.297Z,100575.80
2023-01-10T19:22:10.196Z,100579.00
2023-01-10T19:24:39.332Z,100569.40
2023-01-10T19:27:08.256Z,100565.80
2023-01-10T19:29:37.627Z,100571.00
2023-01-10T19:32:06.469Z,100566.00
2023-01-10T19:34:35.670Z,100564.40
2023-01-10T19:37:04.521Z,100564.20
2023-01-10T19:39:33.857Z,100568.80
2023-01-10T19:42:02.643Z,100561.80
2023-01-10T19:44:31.486Z,100563.80
2023-01-10T19:47:00.291Z,100563.00
2023-01-10T19:49:35.032Z,100560.60
2023-01-10T19:52:05.449Z,100563.40
2023-01-10T19:54:34.709Z,100561.40
2023-01-10T19:57:03.809Z,100563.20
2023-01-10T19:59:33.529Z,100568.40
2023-01-10T20:02:02.391Z,100569.40
2023-01-10T20:04:31.431Z,100574.60
2023-01-10T20:07:00.253Z,100573.00
2023-01-10T20:09:29.061Z,100577.80
2023-01-10T20:11:57.652Z,100578.80
2023-01-10T20:14:26.472Z,100583.40
2023-01-10T20:16:55.233Z,100579.80
2023-01-10T20:19:24.155Z,100582.00
2023-01-10T20:21:52.841Z,100580.60
2023-01-10T20:24:22.364Z,100582.60
2023-01-10T20:26:52.100Z,100581.80
2023-01-10T20:29:20.969Z,100585.20
2023-01-10T20:31:53.219Z,100582.80
2023-01-10T20:34:23.289Z,100582.00
2023-01-10T20:36:54.525Z,100580.60
2023-01-10T20:39:30.935Z,100577.80
2023-01-10T20:42:00.431Z,100574.60
2023-01-10T20:44:30.011Z,100570.40
2023-01-10T20:46:58.804Z,100573.80
2023-01-10T20:49:27.680Z,100575.20
2023-01-10T20:51:56.479Z,100577.00
2023-01-10T20:54:26.034Z,100580.80
2023-01-10T20:56:54.816Z,100572.20
2023-01-10T20:59:25.948Z,100570.80
2023-01-10T21:01:55.205Z,100562.60
2023-01-10T21:04:24.199Z,100560.60
2023-01-10T21:06:53.091Z,100560.20
2023-01-10T21:09:22.061Z,100569.00
2023-01-10T21:12:02.079Z,100565.00
2023-01-10T21:14:39.323Z,100562.60
2023-01-10T21:17:08.019Z,100562.00
2023-01-10T21:19:36.714Z,100562.60
2023-01-10T21:22:05.456Z,100556.40
2023-01-10T21:24:34.196Z,100562.00
2023-01-10T21:27:03.057Z,100561.40
2023-01-10T21:29:31.741Z,100562.60
2023-01-10T21:32:00.639Z,100561.00
2023-01-10T21:34:29.314Z,100563.00
2023-01-10T21:36:58.361Z,100561.00
2023-01-10T21:39:27.300Z,100554.60
2023-01-10T21:42:14.421Z,100555.80
2023-01-10T21:44:43.338Z,100552.40
2023-01-10T21:47:12.140Z,100556.20
2023-01-10T21:49:41.038Z,100561.20
2023-01-10T21:52:09.932Z,100555.60
2023-01-10T21:54:38.611Z,100552.40
2023-01-10T21:57:07.408Z,100557.80
2023-01-10T21:59:38.131Z,100557.80
2023-01-10T22:02:12.453Z,100557.60
2023-01-10T22:04:42.354Z,100562.60
2023-01-10T22:07:11.143Z,100560.40
2023-01-10T22:09:39.840Z,100559.20
2023-01-10T22:12:10.038Z,100563.40
2023-01-10T22:14:38.723Z,100563.80
2023-01-10T22:17:07.474Z,100559.20
2023-01-10T22:19:36.203Z,100559.20
2023-01-10T22:22:05.343Z,100556.80
2023-01-10T22:24:35.226Z,100549.80
2023-01-10T22:27:05.205Z,100544.00
2023-01-10T22:29:33.900Z,100548.80
2023-01-10T22:32:02.638Z,100549.40
2023-01-10T22:34:31.383Z,100544.80
2023-01-10T22:37:00.394Z,100540.20
2023-01-10T22:39:31.561Z,100539.00
2023-01-10T22:42:00.288Z,100544.20
2023-01-10T22:44:29.012Z,100539.80
2023-01-10T22:46:57.747Z,100536.00
2023-01-10T22:49:26.462Z,100543.00
2023-01-10T22:51:55.232Z,100543.80
2023-01-10T22:54:23.916Z,100545.20
2023-01-10T22:56:52.711Z,100540.60
2023-01-10T23:03:30.292Z,100547.20
2023-01-10T23:07:01.191Z,100537.40
2023-01-10T23:10:31.221Z,100528.80
2023-01-10T23:14:00.733Z,100534.80
2023-01-10T23:17:31.050Z,100528.60
2023-01-10T23:20:58.870Z,100530.20
2023-01-10T23:24:28.059Z,100535.00
2023-01-10T23:27:57.972Z,100532.80
2023-01-10T23:31:29.311Z,100533.60
2023-01-10T23:34:59.150Z,100529.20
2023-01-10T23:38:28.964Z,100526.20
2023-01-10T23:41:58.812Z,100534.20
2023-01-10T23:45:30.052Z,100528.00
2023-01-10T23:48:59.955Z,100526.20
2023-01-10T23:52:29.914Z,100522.00
2023-01-10T23:55:59.848Z,100520.80
2023-01-10T23:59:29.911Z,100517.00
